sensor_id;sensor_type;location;lat;lon;timestamp;P1;durP1;ratioP1;P2;durP2;ratioP2
40537;SDS011;27925;41.874;12.526;2022-10-17T00:01:08;12.57;;;7.22;;
40537;SDS011;27925;41.874;12.526;2022-10-17T00:03:36;11.27;;;6.82;;
40537;SDS011;27925;41.874;12.526;2022-10-17T00:06:04;15.57;;;7.47;;
40537;SDS011;27925;41.874;12.526;2022-10-17T00:08:35;12.60;;;7.57;;
40537;SDS011;27925;41.874;12.526;2022-10-17T00:11:06;10.75;;;6.78;;
40537;SDS011;27925;41.874;12.526;2022-10-17T00:13:36;11.13;;;6.80;;
40537;SDS011;27925;41.874;12.526;2022-10-17T00:16:02;13.50;;;7.65;;
40537;SDS011;27925;41.874;12.526;2022-10-17T00:18:28;13.25;;;6.75;;
40537;SDS011;27925;41.874;12.526;2022-10-17T00:20:54;12.05;;;6.85;;
40537;SDS011;27925;41.874;12.526;2022-10-17T00:23:20;11.68;;;7.13;;
40537;SDS011;27925;41.874;12.526;2022-10-17T00:25:45;11.30;;;7.20;;
40537;SDS011;27925;41.874;12.526;2022-10-17T00:28:11;12.73;;;7.38;;
40537;SDS011;27925;41.874;12.526;2022-10-17T00:30:39;13.65;;;6.90;;
40537;SDS011;27925;41.874;12.526;2022-10-17T00:33:05;12.73;;;6.88;;
40537;SDS011;27925;41.874;12.526;2022-10-17T00:35:31;12.25;;;7.38;;
40537;SDS011;27925;41.874;12.526;2022-10-17T00:37:57;11.70;;;6.80;;
40537;SDS011;27925;41.874;12.526;2022-10-17T00:40:23;12.48;;;7.45;;
40537;SDS011;27925;41.874;12.526;2022-10-17T00:42:48;12.15;;;6.65;;
40537;SDS011;27925;41.874;12.526;2022-10-17T00:45:19;16.13;;;8.02;;
40537;SDS011;27925;41.874;12.526;2022-10-17T00:47:51;11.68;;;7.50;;
40537;SDS011;27925;41.874;12.526;2022-10-17T00:50:29;12.18;;;7.07;;
40537;SDS011;27925;41.874;12.526;2022-10-17T00:52:56;12.25;;;7.97;;
40537;SDS011;27925;41.874;12.526;2022-10-17T00:55:30;12.75;;;8.45;;
40537;SDS011;27925;41.874;12.526;2022-10-17T00:57:58;17.73;;;10.50;;
40537;SDS011;27925;41.874;12.526;2022-10-17T01:00:27;19.92;;;11.80;;
40537;SDS011;27925;41.874;12.526;2022-10-17T01:02:52;17.70;;;12.85;;
40537;SDS011;27925;41.874;12.526;2022-10-17T01:05:19;21.98;;;13.35;;
40537;SDS011;27925;41.874;12.526;2022-10-17T01:07:46;21.05;;;14.23;;
40537;SDS011;27925;41.874;12.526;2022-10-17T01:10:14;23.75;;;13.65;;
40537;SDS011;27925;41.874;12.526;2022-10-17T01:27:26;14.70;;;8.68;;
40537;SDS011;27925;41.874;12.526;2022-10-17T01:32:48;11.45;;;7.55;;
40537;SDS011;27925;41.874;12.526;2022-10-17T01:35:32;14.00;;;7.22;;
40537;SDS011;27925;41.874;12.526;2022-10-17T01:38:19;12.15;;;7.40;;
40537;SDS011;27925;41.874;12.526;2022-10-17T01:46:20;12.98;;;6.80;;
40537;SDS011;27925;41.874;12.526;2022-10-17T01:48:57;14.75;;;8.07;;
40537;SDS011;27925;41.874;12.526;2022-10-17T01:51:28;12.38;;;7.63;;
40537;SDS011;27925;41.874;12.526;2022-10-17T01:54:03;11.07;;;6.80;;
40537;SDS011;27925;41.874;12.526;2022-10-17T01:56:48;13.43;;;7.53;;
40537;SDS011;27925;41.874;12.526;2022-10-17T01:59:24;17.15;;;7.63;;
40537;SDS011;27925;41.874;12.526;2022-10-17T02:01:55;11.77;;;8.05;;
40537;SDS011;27925;41.874;12.526;2022-10-17T02:04:24;12.30;;;7.80;;
40537;SDS011;27925;41.874;12.526;2022-10-17T02:06:50;12.88;;;7.75;;
40537;SDS011;27925;41.874;12.526;2022-10-17T02:11:57;14.88;;;7.30;;
40537;SDS011;27925;41.874;12.526;2022-10-17T02:22:48;12.63;;;7.93;;
40537;SDS011;27925;41.874;12.526;2022-10-17T02:36:08;11.48;;;7.35;;
40537;SDS011;27925;41.874;12.526;2022-10-17T02:38:38;15.93;;;8.45;;
40537;SDS011;27925;41.874;12.526;2022-10-17T02:41:05;12.57;;;8.02;;
40537;SDS011;27925;41.874;12.526;2022-10-17T02:43:35;11.88;;;8.48;;
40537;SDS011;27925;41.874;12.526;2022-10-17T02:46:03;11.00;;;7.95;;
40537;SDS011;27925;41.874;12.526;2022-10-17T02:48:33;11.27;;;7.43;;
40537;SDS011;27925;41.874;12.526;2022-10-17T02:51:04;13.10;;;7.93;;
40537;SDS011;27925;41.874;12.526;2022-10-17T02:53:57;12.82;;;7.80;;
40537;SDS011;27925;41.874;12.526;2022-10-17T02:56:30;11.82;;;7.88;;
40537;SDS011;27925;41.874;12.526;2022-10-17T02:59:01;16.80;;;8.57;;
40537;SDS011;27925;41.874;12.526;2022-10-17T03:01:30;14.95;;;8.05;;
40537;SDS011;27925;41.874;12.526;2022-10-17T03:04:06;14.95;;;8.35;;
40537;SDS011;27925;41.874;12.526;2022-10-17T03:06:34;15.65;;;9.15;;
40537;SDS011;27925;41.874;12.526;2022-10-17T03:09:00;12.70;;;8.27;;
40537;SDS011;27925;41.874;12.526;2022-10-17T03:11:26;13.63;;;8.50;;
40537;SDS011;27925;41.874;12.526;2022-10-17T03:13:51;16.95;;;8.80;;
40537;SDS011;27925;41.874;12.526;2022-10-17T03:16:17;13.15;;;8.15;;
40537;SDS011;27925;41.874;12.526;2022-10-17T03:18:42;15.80;;;8.30;;
40537;SDS011;27925;41.874;12.526;2022-10-17T03:21:08;12.90;;;7.90;;
40537;SDS011;27925;41.874;12.526;2022-10-17T03:23:34;13.20;;;8.45;;
40537;SDS011;27925;41.874;12.526;2022-10-17T03:26:06;14.82;;;7.78;;
40537;SDS011;27925;41.874;12.526;2022-10-17T03:28:32;13.45;;;7.65;;
40537;SDS011;27925;41.874;12.526;2022-10-17T03:30:58;12.90;;;8.32;;
40537;SDS011;27925;41.874;12.526;2022-10-17T03:33:30;13.40;;;8.15;;
40537;SDS011;27925;41.874;12.526;2022-10-17T03:35:55;13.95;;;7.95;;
40537;SDS011;27925;41.874;12.526;2022-10-17T03:38:21;14.02;;;8.10;;
40537;SDS011;27925;41.874;12.526;2022-10-17T03:40:53;15.65;;;8.02;;
40537;SDS011;27925;41.874;12.526;2022-10-17T03:43:20;12.50;;;7.68;;
40537;SDS011;27925;41.874;12.526;2022-10-17T03:45:45;12.60;;;7.63;;
40537;SDS011;27925;41.874;12.526;2022-10-17T03:48:11;11.25;;;7.85;;
40537;SDS011;27925;41.874;12.526;2022-10-17T03:50:37;11.13;;;7.70;;
40537;SDS011;27925;41.874;12.526;2022-10-17T03:53:02;9.95;;;6.85;;
40537;SDS011;27925;41.874;12.526;2022-10-17T03:55:28;15.18;;;8.13;;
40537;SDS011;27925;41.874;12.526;2022-10-17T03:57:53;13.88;;;8.07;;
40537;SDS011;27925;41.874;12.526;2022-10-17T04:00:20;17.15;;;7.90;;
40537;SDS011;27925;41.874;12.526;2022-10-17T04:02:46;10.15;;;6.88;;
40537;SDS011;27925;41.874;12.526;2022-10-17T04:05:12;11.77;;;6.90;;
40537;SDS011;27925;41.874;12.526;2022-10-17T04:07:37;16.25;;;7.78;;
40537;SDS011;27925;41.874;12.526;2022-10-17T04:10:03;11.18;;;7.22;;
40537;SDS011;27925;41.874;12.526;2022-10-17T04:12:29;11.07;;;7.13;;
40537;SDS011;27925;41.874;12.526;2022-10-17T04:14:55;10.77;;;6.60;;
40537;SDS011;27925;41.874;12.526;2022-10-17T04:17:21;12.75;;;7.25;;
40537;SDS011;27925;41.874;12.526;2022-10-17T04:19:48;12.38;;;7.05;;
40537;SDS011;27925;41.874;12.526;2022-10-17T04:22:13;12.60;;;7.50;;
40537;SDS011;27925;41.874;12.526;2022-10-17T04:24:39;11.23;;;6.20;;
40537;SDS011;27925;41.874;12.526;2022-10-17T04:27:05;12.30;;;6.65;;
40537;SDS011;27925;41.874;12.526;2022-10-17T04:29:31;13.90;;;6.75;;
40537;SDS011;27925;41.874;12.526;2022-10-17T04:31:56;12.68;;;6.75;;
40537;SDS011;27925;41.874;12.526;2022-10-17T04:34:22;13.73;;;7.05;;
40537;SDS011;27925;41.874;12.526;2022-10-17T04:36:48;12.50;;;7.43;;
40537;SDS011;27925;41.874;12.526;2022-10-17T04:39:13;12.05;;;6.82;;
40537;SDS011;27925;41.874;12.526;2022-10-17T04:41:39;11.23;;;6.63;;
40537;SDS011;27925;41.874;12.526;2022-10-17T04:44:05;15.57;;;7.57;;
40537;SDS011;27925;41.874;12.526;2022-10-17T04:46:32;12.40;;;7.10;;
40537;SDS011;27925;41.874;12.526;2022-10-17T04:48:58;14.57;;;7.18;;
40537;SDS011;27925;41.874;12.526;2022-10-17T04:51:24;13.18;;;7.57;;
40537;SDS011;27925;41.874;12.526;2022-10-17T04:53:49;13.40;;;6.75;;
40537;SDS011;27925;41.874;12.526;2022-10-17T04:56:19;11.10;;;6.78;;
40537;SDS011;27925;41.874;12.526;2022-10-17T04:58:47;11.00;;;7.03;;
40537;SDS011;27925;41.874;12.526;2022-10-17T05:01:16;11.20;;;6.88;;
40537;SDS011;27925;41.874;12.526;2022-10-17T05:03:45;11.77;;;7.35;;
40537;SDS011;27925;41.874;12.526;2022-10-17T05:06:12;13.20;;;7.03;;
40537;SDS011;27925;41.874;12.526;2022-10-17T05:08:40;13.60;;;7.90;;
40537;SDS011;27925;41.874;12.526;2022-10-17T05:11:13;15.38;;;7.43;;
40537;SDS011;27925;41.874;12.526;2022-10-17T05:13:51;15.65;;;7.63;;
40537;SDS011;27925;41.874;12.526;2022-10-17T05:16:25;11.43;;;7.68;;
40537;SDS011;27925;41.874;12.526;2022-10-17T05:18:52;17.45;;;8.07;;
40537;SDS011;27925;41.874;12.526;2022-10-17T05:21:19;11.50;;;7.63;;
40537;SDS011;27925;41.874;12.526;2022-10-17T05:23:46;12.73;;;7.45;;
40537;SDS011;27925;41.874;12.526;2022-10-17T05:26:12;11.63;;;7.30;;
40537;SDS011;27925;41.874;12.526;2022-10-17T05:28:38;13.07;;;8.05;;
40537;SDS011;27925;41.874;12.526;2022-10-17T05:31:04;16.73;;;7.72;;
40537;SDS011;27925;41.874;12.526;2022-10-17T05:33:31;12.10;;;7.72;;
40537;SDS011;27925;41.874;12.526;2022-10-17T05:35:57;13.90;;;8.13;;
40537;SDS011;27925;41.874;12.526;2022-10-17T05:38:24;13.98;;;7.22;;
40537;SDS011;27925;41.874;12.526;2022-10-17T05:40:50;12.18;;;7.88;;
40537;SDS011;27925;41.874;12.526;2022-10-17T05:43:15;17.15;;;7.90;;
40537;SDS011;27925;41.874;12.526;2022-10-17T05:45:41;16.17;;;8.00;;
40537;SDS011;27925;41.874;12.526;2022-10-17T05:48:07;15.65;;;8.25;;
40537;SDS011;27925;41.874;12.526;2022-10-17T05:50:33;14.43;;;8.00;;
40537;SDS011;27925;41.874;12.526;2022-10-17T05:53:00;12.27;;;7.55;;
40537;SDS011;27925;41.874;12.526;2022-10-17T05:55:25;15.23;;;7.63;;
40537;SDS011;27925;41.874;12.526;2022-10-17T05:57:51;13.60;;;7.53;;
40537;SDS011;27925;41.874;12.526;2022-10-17T06:00:18;13.40;;;7.80;;
40537;SDS011;27925;41.874;12.526;2022-10-17T06:02:44;13.15;;;7.72;;
40537;SDS011;27925;41.874;12.526;2022-10-17T06:05:11;13.15;;;7.95;;
40537;SDS011;27925;41.874;12.526;2022-10-17T06:07:39;16.25;;;7.97;;
40537;SDS011;27925;41.874;12.526;2022-10-17T06:10:05;13.93;;;8.18;;
40537;SDS011;27925;41.874;12.526;2022-10-17T06:12:31;15.82;;;8.10;;
40537;SDS011;27925;41.874;12.526;2022-10-17T06:14:57;15.68;;;8.63;;
40537;SDS011;27925;41.874;12.526;2022-10-17T06:17:23;14.15;;;8.50;;
40537;SDS011;27925;41.874;12.526;2022-10-17T06:19:48;12.73;;;8.00;;
40537;SDS011;27925;41.874;12.526;2022-10-17T06:22:14;14.38;;;8.30;;
40537;SDS011;27925;41.874;12.526;2022-10-17T06:24:40;12.07;;;8.48;;
40537;SDS011;27925;41.874;12.526;2022-10-17T06:27:07;13.50;;;8.32;;
40537;SDS011;27925;41.874;12.526;2022-10-17T06:29:33;14.32;;;8.73;;
40537;SDS011;27925;41.874;12.526;2022-10-17T06:31:58;14.30;;;8.18;;
40537;SDS011;27925;41.874;12.526;2022-10-17T06:34:24;10.52;;;7.07;;
40537;SDS011;27925;41.874;12.526;2022-10-17T06:36:50;15.90;;;8.82;;
40537;SDS011;27925;41.874;12.526;2022-10-17T06:39:16;15.93;;;9.02;;
40537;SDS011;27925;41.874;12.526;2022-10-17T06:41:42;16.33;;;8.68;;
40537;SDS011;27925;41.874;12.526;2022-10-17T06:44:08;15.80;;;7.90;;
40537;SDS011;27925;41.874;12.526;2022-10-17T06:46:37;15.52;;;8.40;;
40537;SDS011;27925;41.874;12.526;2022-10-17T06:49:04;13.77;;;8.32;;
40537;SDS011;27925;41.874;12.526;2022-10-17T06:51:30;16.83;;;8.05;;
40537;SDS011;27925;41.874;12.526;2022-10-17T06:53:59;17.60;;;8.75;;
40537;SDS011;27925;41.874;12.526;2022-10-17T06:56:25;13.35;;;8.88;;
40537;SDS011;27925;41.874;12.526;2022-10-17T06:58:51;14.65;;;8.32;;
40537;SDS011;27925;41.874;12.526;2022-10-17T07:01:17;19.38;;;8.77;;
40537;SDS011;27925;41.874;12.526;2022-10-17T07:03:42;16.95;;;9.38;;
40537;SDS011;27925;41.874;12.526;2022-10-17T07:06:12;11.73;;;8.00;;
40537;SDS011;27925;41.874;12.526;2022-10-17T07:08:41;15.40;;;8.52;;
40537;SDS011;27925;41.874;12.526;2022-10-17T07:11:13;14.18;;;8.32;;
40537;SDS011;27925;41.874;12.526;2022-10-17T07:13:40;11.23;;;7.78;;
40537;SDS011;27925;41.874;12.526;2022-10-17T07:16:07;18.50;;;7.95;;
40537;SDS011;27925;41.874;12.526;2022-10-17T07:18:33;15.73;;;7.90;;
40537;SDS011;27925;41.874;12.526;2022-10-17T07:20:59;13.55;;;8.00;;
40537;SDS011;27925;41.874;12.526;2022-10-17T07:23:25;13.77;;;7.97;;
40537;SDS011;27925;41.874;12.526;2022-10-17T07:25:50;13.98;;;7.43;;
40537;SDS011;27925;41.874;12.526;2022-10-17T07:28:16;13.30;;;7.47;;
40537;SDS011;27925;41.874;12.526;2022-10-17T07:30:43;16.10;;;7.82;;
40537;SDS011;27925;41.874;12.526;2022-10-17T07:33:09;13.07;;;6.90;;
40537;SDS011;27925;41.874;12.526;2022-10-17T07:35:36;16.70;;;7.68;;
40537;SDS011;27925;41.874;12.526;2022-10-17T07:38:04;12.25;;;7.15;;
40537;SDS011;27925;41.874;12.526;2022-10-17T07:40:30;13.00;;;7.07;;
40537;SDS011;27925;41.874;12.526;2022-10-17T07:42:56;14.00;;;7.03;;
40537;SDS011;27925;41.874;12.526;2022-10-17T07:45:22;16.80;;;7.03;;
40537;SDS011;27925;41.874;12.526;2022-10-17T07:47:49;18.58;;;6.43;;
40537;SDS011;27925;41.874;12.526;2022-10-17T07:50:15;13.88;;;6.43;;
40537;SDS011;27925;41.874;12.526;2022-10-17T07:52:40;14.27;;;7.30;;
40537;SDS011;27925;41.874;12.526;2022-10-17T07:55:07;12.88;;;6.68;;
40537;SDS011;27925;41.874;12.526;2022-10-17T07:57:33;13.45;;;6.88;;
40537;SDS011;27925;41.874;12.526;2022-10-17T07:59:59;11.35;;;6.10;;
40537;SDS011;27925;41.874;12.526;2022-10-17T08:02:25;13.20;;;6.68;;
40537;SDS011;27925;41.874;12.526;2022-10-17T08:04:52;13.70;;;6.88;;
40537;SDS011;27925;41.874;12.526;2022-10-17T08:07:18;14.70;;;6.68;;
40537;SDS011;27925;41.874;12.526;2022-10-17T08:09:45;12.40;;;6.43;;
40537;SDS011;27925;41.874;12.526;2022-10-17T08:12:11;17.67;;;6.50;;
40537;SDS011;27925;41.874;12.526;2022-10-17T08:14:39;12.75;;;6.47;;
40537;SDS011;27925;41.874;12.526;2022-10-17T08:17:06;16.38;;;6.72;;
40537;SDS011;27925;41.874;12.526;2022-10-17T08:19:33;15.82;;;7.88;;
40537;SDS011;27925;41.874;12.526;2022-10-17T08:21:58;12.60;;;6.28;;
40537;SDS011;27925;41.874;12.526;2022-10-17T08:24:26;12.95;;;6.90;;
40537;SDS011;27925;41.874;12.526;2022-10-17T08:26:52;13.43;;;6.82;;
40537;SDS011;27925;41.874;12.526;2022-10-17T08:29:18;10.43;;;6.47;;
40537;SDS011;27925;41.874;12.526;2022-10-17T08:31:44;12.73;;;7.05;;
40537;SDS011;27925;41.874;12.526;2022-10-17T08:34:10;22.77;;;7.25;;
40537;SDS011;27925;41.874;12.526;2022-10-17T08:36:35;16.33;;;7.15;;
40537;SDS011;27925;41.874;12.526;2022-10-17T08:39:01;17.17;;;7.45;;
40537;SDS011;27925;41.874;12.526;2022-10-17T08:47:04;24.48;;;8.02;;
40537;SDS011;27925;41.874;12.526;2022-10-17T08:50:00;24.98;;;7.60;;
40537;SDS011;27925;41.874;12.526;2022-10-17T08:52:41;21.55;;;7.25;;
40537;SDS011;27925;41.874;12.526;2022-10-17T08:55:30;14.45;;;7.40;;
40537;SDS011;27925;41.874;12.526;2022-10-17T08:58:02;13.10;;;7.03;;
40537;SDS011;27925;41.874;12.526;2022-10-17T09:06:47;14.65;;;6.65;;
40537;SDS011;27925;41.874;12.526;2022-10-17T09:23:45;15.88;;;7.38;;
40537;SDS011;27925;41.874;12.526;2022-10-17T09:26:16;19.40;;;7.33;;
40537;SDS011;27925;41.874;12.526;2022-10-17T09:28:42;19.75;;;8.38;;
40537;SDS011;27925;41.874;12.526;2022-10-17T09:31:11;17.40;;;7.90;;
40537;SDS011;27925;41.874;12.526;2022-10-17T09:33:50;14.10;;;6.82;;
40537;SDS011;27925;41.874;12.526;2022-10-17T09:36:30;14.30;;;8.13;;
40537;SDS011;27925;41.874;12.526;2022-10-17T09:38:59;14.07;;;7.63;;
40537;SDS011;27925;41.874;12.526;2022-10-17T09:41:38;17.98;;;7.95;;
40537;SDS011;27925;41.874;12.526;2022-10-17T09:44:22;13.77;;;8.30;;
40537;SDS011;27925;41.874;12.526;2022-10-17T09:49:35;15.25;;;8.10;;
40537;SDS011;27925;41.874;12.526;2022-10-17T09:52:10;14.63;;;7.80;;
40537;SDS011;27925;41.874;12.526;2022-10-17T09:57:09;18.30;;;7.18;;
40537;SDS011;27925;41.874;12.526;2022-10-17T09:59:37;13.77;;;7.13;;
40537;SDS011;27925;41.874;12.526;2022-10-17T10:02:16;10.88;;;7.28;;
40537;SDS011;27925;41.874;12.526;2022-10-17T10:04:54;14.90;;;7.00;;
40537;SDS011;27925;41.874;12.526;2022-10-17T10:07:22;14.50;;;9.75;;
40537;SDS011;27925;41.874;12.526;2022-10-17T10:09:49;13.98;;;7.55;;
40537;SDS011;27925;41.874;12.526;2022-10-17T10:12:17;10.93;;;7.57;;
40537;SDS011;27925;41.874;12.526;2022-10-17T10:14:45;15.02;;;7.80;;
40537;SDS011;27925;41.874;12.526;2022-10-17T10:17:26;19.58;;;8.30;;
40537;SDS011;27925;41.874;12.526;2022-10-17T10:19:58;16.30;;;7.93;;
40537;SDS011;27925;41.874;12.526;2022-10-17T10:22:23;13.38;;;8.07;;
40537;SDS011;27925;41.874;12.526;2022-10-17T10:27:40;20.48;;;8.55;;
40537;SDS011;27925;41.874;12.526;2022-10-17T10:30:24;11.32;;;7.20;;
40537;SDS011;27925;41.874;12.526;2022-10-17T10:32:52;11.38;;;7.40;;
40537;SDS011;27925;41.874;12.526;2022-10-17T10:37:50;18.00;;;8.18;;
40537;SDS011;27925;41.874;12.526;2022-10-17T10:42:54;14.50;;;7.60;;
40537;SDS011;27925;41.874;12.526;2022-10-17T10:45:26;12.15;;;6.90;;
40537;SDS011;27925;41.874;12.526;2022-10-17T10:48:00;13.13;;;7.32;;
40537;SDS011;27925;41.874;12.526;2022-10-17T11:00:55;11.88;;;6.93;;
40537;SDS011;27925;41.874;12.526;2022-10-17T11:03:29;14.57;;;7.45;;
40537;SDS011;27925;41.874;12.526;2022-10-17T11:06:03;14.30;;;7.78;;
40537;SDS011;27925;41.874;12.526;2022-10-17T11:08:39;10.68;;;6.55;;
40537;SDS011;27925;41.874;12.526;2022-10-17T11:11:13;15.38;;;7.63;;
40537;SDS011;27925;41.874;12.526;2022-10-17T11:13:55;10.50;;;6.47;;
40537;SDS011;27925;41.874;12.526;2022-10-17T11:16:34;13.40;;;7.05;;
40537;SDS011;27925;41.874;12.526;2022-10-17T11:19:10;9.35;;;6.80;;
40537;SDS011;27925;41.874;12.526;2022-10-17T11:24:29;14.40;;;7.57;;
40537;SDS011;27925;41.874;12.526;2022-10-17T11:29:31;12.27;;;6.88;;
40537;SDS011;27925;41.874;12.526;2022-10-17T11:32:01;11.88;;;7.03;;
40537;SDS011;27925;41.874;12.526;2022-10-17T11:34:34;12.55;;;7.70;;
40537;SDS011;27925;41.874;12.526;2022-10-17T11:37:13;14.38;;;7.30;;
40537;SDS011;27925;41.874;12.526;2022-10-17T11:39:53;11.90;;;7.28;;
40537;SDS011;27925;41.874;12.526;2022-10-17T11:42:40;11.93;;;6.35;;
40537;SDS011;27925;41.874;12.526;2022-10-17T11:45:32;12.02;;;7.90;;
40537;SDS011;27925;41.874;12.526;2022-10-17T11:48:26;19.10;;;12.35;;
40537;SDS011;27925;41.874;12.526;2022-10-17T11:50:54;15.38;;;11.05;;
40537;SDS011;27925;41.874;12.526;2022-10-17T11:54:26;14.00;;;7.78;;
40537;SDS011;27925;41.874;12.526;2022-10-17T12:02:48;13.52;;;7.15;;
40537;SDS011;27925;41.874;12.526;2022-10-17T12:05:29;12.15;;;7.32;;
40537;SDS011;27925;41.874;12.526;2022-10-17T12:08:17;10.60;;;7.22;;
40537;SDS011;27925;41.874;12.526;2022-10-17T12:10:53;12.60;;;7.88;;
40537;SDS011;27925;41.874;12.526;2022-10-17T12:16:35;16.00;;;7.57;;
40537;SDS011;27925;41.874;12.526;2022-10-17T12:18:43;11.10;;;6.95;;
40537;SDS011;27925;41.874;12.526;2022-10-17T12:27:22;11.52;;;6.65;;
40537;SDS011;27925;41.874;12.526;2022-10-17T12:30:20;12.85;;;8.02;;
40537;SDS011;27925;41.874;12.526;2022-10-17T12:32:57;11.50;;;7.40;;
40537;SDS011;27925;41.874;12.526;2022-10-17T12:35:31;13.48;;;6.78;;
40537;SDS011;27925;41.874;12.526;2022-10-17T12:37:59;15.68;;;7.20;;
40537;SDS011;27925;41.874;12.526;2022-10-17T12:45:55;10.57;;;6.80;;
40537;SDS011;27925;41.874;12.526;2022-10-17T12:51:09;10.98;;;6.78;;
40537;SDS011;27925;41.874;12.526;2022-10-17T12:56:15;14.52;;;8.18;;
40537;SDS011;27925;41.874;12.526;2022-10-17T12:58:49;13.65;;;6.85;;
40537;SDS011;27925;41.874;12.526;2022-10-17T13:01:17;11.95;;;6.55;;
40537;SDS011;27925;41.874;12.526;2022-10-17T13:03:54;9.98;;;6.38;;
40537;SDS011;27925;41.874;12.526;2022-10-17T13:06:23;15.50;;;6.95;;
40537;SDS011;27925;41.874;12.526;2022-10-17T13:08:59;12.73;;;6.45;;
40537;SDS011;27925;41.874;12.526;2022-10-17T13:11:29;9.80;;;6.50;;
40537;SDS011;27925;41.874;12.526;2022-10-17T13:13:58;12.23;;;6.47;;
40537;SDS011;27925;41.874;12.526;2022-10-17T13:16:27;11.90;;;6.75;;
40537;SDS011;27925;41.874;12.526;2022-10-17T13:18:54;10.55;;;6.10;;
40537;SDS011;27925;41.874;12.526;2022-10-17T13:21:20;9.07;;;6.03;;
40537;SDS011;27925;41.874;12.526;2022-10-17T13:23:46;11.68;;;6.63;;
40537;SDS011;27925;41.874;12.526;2022-10-17T13:26:15;13.57;;;6.72;;
40537;SDS011;27925;41.874;12.526;2022-10-17T13:28:59;14.07;;;6.78;;
40537;SDS011;27925;41.874;12.526;2022-10-17T13:31:36;8.52;;;5.63;;
40537;SDS011;27925;41.874;12.526;2022-10-17T13:34:05;13.32;;;6.50;;
40537;SDS011;27925;41.874;12.526;2022-10-17T13:36:39;8.27;;;6.10;;
40537;SDS011;27925;41.874;12.526;2022-10-17T13:39:11;10.75;;;6.13;;
40537;SDS011;27925;41.874;12.526;2022-10-17T13:41:40;9.32;;;5.95;;
40537;SDS011;27925;41.874;12.526;2022-10-17T13:44:09;7.75;;;5.05;;
40537;SDS011;27925;41.874;12.526;2022-10-17T13:46:40;11.02;;;5.50;;
40537;SDS011;27925;41.874;12.526;2022-10-17T13:49:09;8.68;;;5.97;;
40537;SDS011;27925;41.874;12.526;2022-10-17T13:51:41;7.30;;;5.18;;
40537;SDS011;27925;41.874;12.526;2022-10-17T13:56:56;10.35;;;4.93;;
40537;SDS011;27925;41.874;12.526;2022-10-17T13:59:23;8.73;;;5.72;;
40537;SDS011;27925;41.874;12.526;2022-10-17T14:01:54;7.63;;;4.88;;
40537;SDS011;27925;41.874;12.526;2022-10-17T14:04:21;8.20;;;4.68;;
40537;SDS011;27925;41.874;12.526;2022-10-17T14:06:47;8.15;;;5.00;;
40537;SDS011;27925;41.874;12.526;2022-10-17T14:09:23;8.60;;;4.95;;
40537;SDS011;27925;41.874;12.526;2022-10-17T14:11:58;10.02;;;5.30;;
40537;SDS011;27925;41.874;12.526;2022-10-17T14:14:34;9.63;;;5.30;;
40537;SDS011;27925;41.874;12.526;2022-10-17T14:17:01;7.85;;;4.63;;
40537;SDS011;27925;41.874;12.526;2022-10-17T14:19:28;11.32;;;5.35;;
40537;SDS011;27925;41.874;12.526;2022-10-17T14:24:47;11.93;;;5.47;;
40537;SDS011;27925;41.874;12.526;2022-10-17T14:29:54;10.20;;;5.57;;
40537;SDS011;27925;41.874;12.526;2022-10-17T14:32:25;9.95;;;6.55;;
40537;SDS011;27925;41.874;12.526;2022-10-17T14:34:53;10.95;;;5.50;;
40537;SDS011;27925;41.874;12.526;2022-10-17T14:40:13;7.40;;;5.53;;
40537;SDS011;27925;41.874;12.526;2022-10-17T14:42:41;9.73;;;5.32;;
40537;SDS011;27925;41.874;12.526;2022-10-17T14:45:10;14.00;;;6.55;;
40537;SDS011;27925;41.874;12.526;2022-10-17T14:47:39;13.00;;;6.88;;
40537;SDS011;27925;41.874;12.526;2022-10-17T14:52:37;12.38;;;5.97;;
40537;SDS011;27925;41.874;12.526;2022-10-17T14:55:21;9.55;;;6.55;;
40537;SDS011;27925;41.874;12.526;2022-10-17T14:57:49;9.30;;;6.07;;
40537;SDS011;27925;41.874;12.526;2022-10-17T15:00:16;9.13;;;5.60;;
40537;SDS011;27925;41.874;12.526;2022-10-17T15:02:43;10.60;;;5.90;;
40537;SDS011;27925;41.874;12.526;2022-10-17T15:05:10;11.07;;;5.55;;
40537;SDS011;27925;41.874;12.526;2022-10-17T15:07:36;9.60;;;5.80;;
40537;SDS011;27925;41.874;12.526;2022-10-17T15:10:02;8.93;;;5.50;;
40537;SDS011;27925;41.874;12.526;2022-10-17T15:12:29;8.23;;;6.05;;
40537;SDS011;27925;41.874;12.526;2022-10-17T15:14:55;10.57;;;6.05;;
40537;SDS011;27925;41.874;12.526;2022-10-17T15:17:25;13.10;;;6.35;;
40537;SDS011;27925;41.874;12.526;2022-10-17T15:19:53;13.00;;;6.13;;
40537;SDS011;27925;41.874;12.526;2022-10-17T15:22:19;12.05;;;5.68;;
40537;SDS011;27925;41.874;12.526;2022-10-17T15:24:45;11.35;;;5.75;;
40537;SDS011;27925;41.874;12.526;2022-10-17T15:27:22;11.85;;;6.55;;
40537;SDS011;27925;41.874;12.526;2022-10-17T15:29:49;8.23;;;5.53;;
40537;SDS011;27925;41.874;12.526;2022-10-17T15:32:15;8.02;;;5.85;;
40537;SDS011;27925;41.874;12.526;2022-10-17T15:34:41;12.98;;;6.68;;
40537;SDS011;27925;41.874;12.526;2022-10-17T15:37:13;10.02;;;6.35;;
40537;SDS011;27925;41.874;12.526;2022-10-17T15:39:49;11.05;;;6.50;;
40537;SDS011;27925;41.874;12.526;2022-10-17T15:42:25;13.48;;;6.97;;
40537;SDS011;27925;41.874;12.526;2022-10-17T15:44:55;16.52;;;9.70;;
40537;SDS011;27925;41.874;12.526;2022-10-17T15:49:57;12.10;;;7.38;;
40537;SDS011;27925;41.874;12.526;2022-10-17T15:52:25;14.15;;;7.93;;
40537;SDS011;27925;41.874;12.526;2022-10-17T15:54:52;12.40;;;7.90;;
40537;SDS011;27925;41.874;12.526;2022-10-17T15:57:19;13.57;;;7.75;;
40537;SDS011;27925;41.874;12.526;2022-10-17T15:59:47;14.02;;;7.90;;
40537;SDS011;27925;41.874;12.526;2022-10-17T16:02:15;14.55;;;7.85;;
40537;SDS011;27925;41.874;12.526;2022-10-17T16:04:42;20.25;;;15.65;;
40537;SDS011;27925;41.874;12.526;2022-10-17T16:07:08;14.63;;;8.70;;
40537;SDS011;27925;41.874;12.526;2022-10-17T16:09:34;10.43;;;8.13;;
40537;SDS011;27925;41.874;12.526;2022-10-17T16:12:03;11.75;;;7.30;;
40537;SDS011;27925;41.874;12.526;2022-10-17T16:14:31;11.18;;;8.20;;
40537;SDS011;27925;41.874;12.526;2022-10-17T16:16:57;15.63;;;7.95;;
40537;SDS011;27925;41.874;12.526;2022-10-17T16:19:24;11.13;;;7.72;;
40537;SDS011;27925;41.874;12.526;2022-10-17T16:21:54;14.60;;;8.00;;
40537;SDS011;27925;41.874;12.526;2022-10-17T16:24:22;14.38;;;8.77;;
40537;SDS011;27925;41.874;12.526;2022-10-17T16:26:49;15.52;;;6.80;;
40537;SDS011;27925;41.874;12.526;2022-10-17T16:29:15;14.05;;;7.68;;
40537;SDS011;27925;41.874;12.526;2022-10-17T16:31:41;12.45;;;7.38;;
40537;SDS011;27925;41.874;12.526;2022-10-17T16:34:09;13.75;;;8.07;;
40537;SDS011;27925;41.874;12.526;2022-10-17T16:36:37;10.70;;;7.22;;
40537;SDS011;27925;41.874;12.526;2022-10-17T16:39:03;13.68;;;7.78;;
40537;SDS011;27925;41.874;12.526;2022-10-17T16:41:30;12.30;;;8.00;;
40537;SDS011;27925;41.874;12.526;2022-10-17T16:43:59;14.27;;;8.63;;
40537;SDS011;27925;41.874;12.526;2022-10-17T16:46:28;14.07;;;8.00;;
40537;SDS011;27925;41.874;12.526;2022-10-17T16:48:56;14.70;;;8.18;;
40537;SDS011;27925;41.874;12.526;2022-10-17T16:51:22;12.02;;;7.47;;
40537;SDS011;27925;41.874;12.526;2022-10-17T16:53:49;15.32;;;8.05;;
40537;SDS011;27925;41.874;12.526;2022-10-17T16:56:18;12.10;;;7.97;;
40537;SDS011;27925;41.874;12.526;2022-10-17T16:58:45;13.95;;;9.35;;